Time;durP1;ratioP1;P1;durP2;ratioP2;P2;SDS_P1;SDS_P2;PMS_P1;PMS_P2;Temp;Humidity;BMP_temperature;BMP_pressure;BME280_temperature;BME280_humidity;BME280_pressure;Samples;Min_cycle;Max_cycle;Signal;HPM_P1;HPM_P2
2022/10/08 00:02:41;;;;;;;11.27;9.37;;;;;;;19.26;59.54;99010.88;6947956;28;20257;-80
2022/10/08 00:06:04;;;;;;;10.27;9.23;;;;;;;18.82;61.42;99017.41;6948416;28;20278;-80
2022/10/08 00:09:26;;;;;;;14.87;10.80;;;;;;;17.93;64.24;99002.06;6947440;28;20324;-79
2022/10/08 00:12:49;;;;;;;11.73;10.23;;;;;;;17.97;64.85;99013.31;6948299;28;20243;-80
2022/10/08 00:16:12;;;;;;;13.23;9.47;;;;;;;18.43;63.68;99022.03;6948488;28;20345;-80
2022/10/08 00:19:33;;;;;;;14.97;9.60;;;;;;;19.14;61.92;99019.22;6946001;28;20233;-81
2022/10/08 00:22:55;;;;;;;13.80;8.37;;;;;;;19.40;60.60;99003.97;6948252;28;20218;-80
2022/10/08 00:26:19;;;;;;;11.47;8.37;;;;;;;19.12;60.07;98971.34;6948390;28;20559;-80
2022/10/08 00:29:43;;;;;;;10.00;8.90;;;;;;;19.12;61.02;99004.16;6947827;28;20227;-81
2022/10/08 00:33:05;;;;;;;11.03;9.43;;;;;;;18.99;60.63;98985.41;6948398;28;20652;-80
2022/10/08 00:36:30;;;;;;;11.27;8.27;;;;;;;19.21;60.46;99000.72;6947973;28;20732;-80
2022/10/08 00:39:51;;;;;;;11.17;8.73;;;;;;;18.58;62.52;99013.25;6946862;28;20231;-80
2022/10/08 00:43:15;;;;;;;9.70;8.80;;;;;;;18.79;61.92;98996.88;6947742;28;20312;-81
2022/10/08 00:46:44;;;;;;;11.47;8.50;;;;;;;18.72;61.76;99011.81;6947315;28;20206;-80
2022/10/08 00:50:10;;;;;;;12.00;8.97;;;;;;;19.11;61.28;99000.56;6947038;28;20288;-80
2022/10/08 00:53:31;;;;;;;10.23;9.13;;;;;;;19.06;61.11;98977.84;6947364;28;20268;-80
2022/10/08 00:56:54;;;;;;;12.23;9.03;;;;;;;19.26;60.70;99005.44;6947253;28;20218;-80
2022/10/08 01:00:18;;;;;;;9.93;8.93;;;;;;;18.90;61.38;98956.84;6946589;28;20282;-79
2022/10/08 01:03:40;;;;;;;11.93;8.53;;;;;;;19.07;61.33;99004.06;6946873;28;20279;-81
2022/10/08 01:07:06;;;;;;;14.43;9.60;;;;;;;19.17;60.65;98988.63;6947622;28;20256;-80
2022/10/08 01:10:33;;;;;;;8.77;7.90;;;;;;;19.37;59.79;98996.25;6946494;28;20223;-80
2022/10/08 01:14:01;;;;;;;11.30;7.93;;;;;;;19.34;59.61;98986.66;6947226;28;20285;-80
2022/10/08 01:17:27;;;;;;;13.13;8.37;;;;;;;18.97;60.35;98971.16;6946950;28;20432;-80
2022/10/08 01:20:57;;;;;;;12.17;9.13;;;;;;;18.87;60.92;98974.59;6944734;28;20305;-81
2022/10/08 01:28:13;;;;;;;13.37;9.57;;;;;;;18.90;61.58;98987.75;6918866;28;20200;-81
2022/10/08 01:31:37;;;;;;;12.13;10.57;;;;;;;18.70;61.95;98984.72;6920029;28;20285;-80
2022/10/08 01:35:02;;;;;;;11.33;9.87;;;;;;;18.68;61.90;98975.13;6919737;28;20238;-80
2022/10/08 01:38:24;;;;;;;18.27;10.77;;;;;;;18.48;62.38;98962.06;6919279;28;20726;-80
2022/10/08 01:41:50;;;;;;;13.73;10.07;;;;;;;18.46;62.47;98990.69;6919617;28;20230;-80
2022/10/08 01:45:16;;;;;;;10.97;9.83;;;;;;;18.63;62.06;98953.25;6919909;28;20248;-80
2022/10/08 01:48:40;;;;;;;12.80;10.40;;;;;;;18.91;61.35;98964.81;6919165;28;20670;-80
2022/10/08 01:52:06;;;;;;;16.10;10.93;;;;;;;19.02;61.32;98972.06;6920112;28;20290;-80
2022/10/08 01:55:31;;;;;;;14.97;10.87;;;;;;;18.81;61.34;98972.88;6920038;28;20243;-80
2022/10/08 01:58:55;;;;;;;11.77;10.50;;;;;;;18.63;61.68;98988.75;6919733;28;20306;-80
2022/10/08 02:02:20;;;;;;;17.67;10.80;;;;;;;18.71;61.62;98953.63;6919874;28;20369;-80
2022/10/08 02:05:47;;;;;;;14.07;10.97;;;;;;;18.75;61.74;98976.59;6919959;28;20241;-80
2022/10/08 02:09:09;;;;;;;11.63;9.43;;;;;;;19.02;60.51;98957.53;6919894;28;20351;-80
2022/10/08 02:12:31;;;;;;;13.27;10.37;;;;;;;18.54;60.61;98917.34;6925194;28;20260;-81
2022/10/08 02:16:00;;;;;;;14.77;10.00;;;;;;;18.99;60.33;98975.28;6943261;28;20208;-82
2022/10/08 02:19:29;;;;;;;11.13;10.00;;;;;;;18.39;60.98;98952.63;6929314;28;20269;-80
2022/10/08 02:22:57;;;;;;;16.10;11.57;;;;;;;18.28;62.13;98969.09;6919296;28;20221;-80
2022/10/08 02:26:22;;;;;;;14.03;11.07;;;;;;;18.33;62.74;98963.75;6922515;28;20197;-80
2022/10/08 02:29:46;;;;;;;12.77;11.47;;;;;;;18.32;62.65;98946.53;6923202;28;20254;-80
2022/10/08 02:33:12;;;;;;;12.10;10.90;;;;;;;18.68;62.15;98965.06;6923719;28;20235;-81
2022/10/08 02:36:37;;;;;;;14.87;11.87;;;;;;;17.88;65.72;98954.81;6924064;28;20633;-81
2022/10/08 02:40:01;;;;;;;12.80;11.20;;;;;;;18.32;63.60;98945.69;6922553;28;20230;-80
2022/10/08 02:43:26;;;;;;;15.13;10.57;;;;;;;18.33;62.03;98909.97;6923252;28;20227;-80
2022/10/08 02:46:50;;;;;;;15.20;11.07;;;;;;;18.44;62.16;98960.91;6923895;28;20334;-81
2022/10/08 02:50:14;;;;;;;15.90;11.23;;;;;;;18.55;62.06;98959.13;6922771;28;20392;-80
2022/10/08 02:53:39;;;;;;;16.50;11.47;;;;;;;18.00;64.03;98961.84;6923003;28;20271;-81
2022/10/08 02:57:04;;;;;;;16.83;11.30;;;;;;;18.39;63.32;98979.13;6923398;28;20225;-80
2022/10/08 03:00:31;;;;;;;12.37;10.80;;;;;;;18.64;62.47;98965.81;6922390;28;20319;-80
2022/10/08 03:03:57;;;;;;;12.03;10.83;;;;;;;18.73;61.66;98973.31;6923113;28;20307;-80
2022/10/08 03:07:21;;;;;;;15.27;10.07;;;;;;;18.77;62.10;98970.91;6923433;28;20194;-80
2022/10/08 03:10:44;;;;;;;16.10;10.53;;;;;;;17.89;64.86;98960.03;6923025;28;20239;-80
2022/10/08 03:14:08;;;;;;;14.83;10.13;;;;;;;17.97;64.85;98975.97;6923731;28;20294;-80
2022/10/08 03:17:33;;;;;;;12.43;9.80;;;;;;;18.60;63.27;98987.34;6923016;28;20657;-81
2022/10/08 03:20:55;;;;;;;15.03;10.47;;;;;;;18.85;61.64;98956.78;6922572;28;20226;-80
2022/10/08 03:24:16;;;;;;;16.23;11.03;;;;;;;18.54;62.48;98965.66;6920984;28;20230;-80
2022/10/08 03:27:39;;;;;;;15.63;10.07;;;;;;;18.67;62.10;98974.31;6925001;28;20192;-80
2022/10/08 03:31:03;;;;;;;12.10;10.60;;;;;;;18.07;63.17;98976.13;6924881;28;20270;-80
2022/10/08 03:34:25;;;;;;;13.37;10.77;;;;;;;18.65;62.26;98981.13;6923489;28;20692;-80
2022/10/08 03:37:47;;;;;;;13.73;10.40;;;;;;;18.59;62.36;98991.16;6921434;28;20202;-80
2022/10/08 03:41:09;;;;;;;15.40;10.70;;;;;;;18.47;62.61;98974.06;6921812;28;20712;-80
2022/10/08 03:44:31;;;;;;;15.77;11.00;;;;;;;17.87;64.78;98996.81;6921820;28;20238;-80
2022/10/08 03:47:53;;;;;;;12.20;10.73;;;;;;;18.76;62.62;98997.38;6920488;28;20375;-80
2022/10/08 03:51:15;;;;;;;13.90;10.87;;;;;;;18.62;62.52;98990.63;6921280;28;20211;-81
2022/10/08 03:54:36;;;;;;;11.13;10.00;;;;;;;18.67;62.93;98990.72;6920894;28;20290;-81
2022/10/08 03:57:58;;;;;;;14.63;11.30;;;;;;;18.38;63.86;99002.84;6920573;28;20228;-81
2022/10/08 04:01:21;;;;;;;10.83;9.70;;;;;;;18.90;62.54;98995.94;6920884;28;20253;-80
2022/10/08 04:04:42;;;;;;;13.93;10.17;;;;;;;18.64;62.44;99002.13;6920812;28;20298;-80
2022/10/08 04:08:04;;;;;;;14.03;10.37;;;;;;;18.68;63.09;99029.75;6922130;28;20241;-81
2022/10/08 04:11:25;;;;;;;12.03;9.90;;;;;;;18.69;62.39;99004.13;6920718;28;20739;-81
2022/10/08 04:14:47;;;;;;;11.63;10.00;;;;;;;18.83;62.38;99027.25;6920499;28;20357;-81
2022/10/08 04:18:11;;;;;;;12.63;10.13;;;;;;;18.46;63.04;99001.59;6919548;28;20317;-80
2022/10/08 04:21:33;;;;;;;12.93;10.43;;;;;;;18.81;62.58;99032.16;6920103;28;20255;-81
2022/10/08 04:24:54;;;;;;;12.30;10.17;;;;;;;18.62;62.82;99028.03;6918514;28;20300;-81
2022/10/08 04:28:16;;;;;;;12.53;11.20;;;;;;;18.57;62.56;99023.34;6919533;28;20234;-81
2022/10/08 04:31:37;;;;;;;12.50;11.07;;;;;;;18.77;62.49;99036.47;6919962;28;20289;-81
2022/10/08 04:35:00;;;;;;;13.27;11.33;;;;;;;18.79;62.19;99021.47;6919932;28;20239;-80
2022/10/08 04:38:22;;;;;;;12.10;10.90;;;;;;;18.86;61.95;99027.56;6918960;28;20312;-80
2022/10/08 04:41:44;;;;;;;15.30;10.53;;;;;;;18.64;62.41;99043.09;6919748;28;20301;-81
2022/10/08 04:45:06;;;;;;;15.37;11.13;;;;;;;18.62;62.60;99042.53;6919540;28;20220;-80
2022/10/08 04:48:28;;;;;;;14.03;11.03;;;;;;;18.66;62.63;99049.16;6918270;28;20232;-80
2022/10/08 04:51:50;;;;;;;13.70;11.60;;;;;;;18.06;62.42;98946.38;6920081;28;20270;-80
2022/10/08 04:55:12;;;;;;;14.37;11.70;;;;;;;18.60;62.35;99047.44;6919727;28;20273;-80
2022/10/08 04:58:33;;;;;;;13.60;10.90;;;;;;;18.68;62.08;99047.00;6945298;28;20488;-79
2022/10/08 05:01:56;;;;;;;13.03;10.23;;;;;;;18.97;61.15;99029.38;6946785;28;20225;-82
2022/10/08 05:05:18;;;;;;;13.03;11.30;;;;;;;18.86;62.18;99033.03;6939044;28;20229;-79
2022/10/08 05:08:41;;;;;;;12.93;10.40;;;;;;;19.21;60.69;99060.88;6944657;28;20298;-80
2022/10/08 05:12:02;;;;;;;12.27;11.00;;;;;;;19.33;60.60;99063.50;6941907;28;20757;-80
2022/10/08 05:15:24;;;;;;;14.13;10.73;;;;;;;19.18;60.26;99060.53;6948339;28;20216;-81
2022/10/08 05:18:46;;;;;;;13.30;9.73;;;;;;;19.14;60.27;99054.75;6946389;28;20326;-80
2022/10/08 05:22:07;;;;;;;13.93;9.53;;;;;;;19.21;60.46;99057.34;6948218;28;20317;-79
2022/10/08 05:25:32;;;;;;;10.87;9.87;;;;;;;19.15;60.17;99050.09;6947585;28;20261;-84
2022/10/08 05:28:54;;;;;;;13.07;9.60;;;;;;;19.30;59.98;99042.97;6948472;28;20765;-80
2022/10/08 05:32:16;;;;;;;11.57;10.37;;;;;;;19.15;60.27;99066.50;6949603;28;20212;-79
2022/10/08 05:35:38;;;;;;;12.03;10.60;;;;;;;18.91;60.57;99073.25;6950280;28;20210;-79
2022/10/08 05:39:00;;;;;;;12.63;10.90;;;;;;;19.02;60.45;99067.69;6949357;28;20229;-79
2022/10/08 05:42:23;;;;;;;12.43;11.00;;;;;;;18.96;60.93;99073.34;6958760;28;20364;-81
2022/10/08 05:45:50;;;;;;;15.87;11.00;;;;;;;18.79;61.68;99078.84;6966796;28;20190;-80
2022/10/08 05:49:17;;;;;;;13.33;10.37;;;;;;;18.81;61.25;99067.69;6951587;28;20325;-80
2022/10/08 05:52:38;;;;;;;12.30;10.03;;;;;;;18.64;61.41;99042.28;6947721;28;20188;-79
2022/10/08 05:56:00;;;;;;;11.83;10.53;;;;;;;19.01;61.02;99082.47;6947746;28;20209;-79
2022/10/08 05:59:24;;;;;;;12.30;11.07;;;;;;;18.82;60.79;99067.41;6951394;28;20249;-79
2022/10/08 06:02:45;;;;;;;13.67;12.20;;;;;;;18.83;61.40;99090.94;6952350;28;20845;-79
2022/10/08 06:06:09;;;;;;;15.40;12.03;;;;;;;18.94;61.35;99098.22;6952201;28;20297;-80
2022/10/08 06:09:31;;;;;;;16.90;12.73;;;;;;;18.88;61.32;99112.84;6952086;28;20785;-81
2022/10/08 06:12:52;;;;;;;13.63;11.33;;;;;;;19.13;60.48;99102.28;6953935;28;20285;-80
2022/10/08 06:16:15;;;;;;;10.83;9.77;;;;;;;18.75;60.83;99033.16;6939920;28;20241;-81
2022/10/08 06:19:36;;;;;;;11.00;10.00;;;;;;;18.98;60.73;99109.47;6925323;28;20327;-81
2022/10/08 06:22:58;;;;;;;11.23;9.47;;;;;;;19.17;60.19;99088.94;6951336;28;20392;-80
2022/10/08 06:26:21;;;;;;;17.07;10.13;;;;;;;19.04;60.64;99127.59;6951228;28;20294;-81
2022/10/08 06:29:42;;;;;;;15.97;10.53;;;;;;;18.65;61.60;99104.88;6954924;28;20227;-81
2022/10/08 06:33:08;;;;;;;12.70;10.93;;;;;;;18.50;61.38;99057.34;6956667;28;20224;-81
2022/10/08 06:36:30;;;;;;;11.83;10.57;;;;;;;19.17;61.05;99116.28;6955964;28;20348;-81
2022/10/08 06:39:52;;;;;;;12.23;11.03;;;;;;;19.21;61.06;99131.16;6949425;28;20260;-81
2022/10/08 06:43:15;;;;;;;16.40;10.33;;;;;;;19.53;60.58;99124.75;6952760;28;20238;-80
2022/10/08 06:46:36;;;;;;;11.80;10.40;;;;;;;19.68;60.21;99119.44;6953995;28;20227;-79
2022/10/08 06:50:00;;;;;;;15.33;11.33;;;;;;;19.89;59.88;99132.28;6953083;28;20316;-81
2022/10/08 06:53:21;;;;;;;11.90;10.00;;;;;;;19.91;59.50;99142.94;6950143;28;20333;-84
2022/10/08 06:56:43;;;;;;;14.43;12.47;;;;;;;19.24;60.03;99152.50;6953774;28;20341;-81
2022/10/08 07:00:06;;;;;;;13.37;10.50;;;;;;;19.40;60.81;99146.16;6951533;28;20346;-80
2022/10/08 07:03:27;;;;;;;13.17;10.77;;;;;;;19.82;59.47;99147.25;6950669;28;21047;-81
2022/10/08 07:06:50;;;;;;;12.40;9.77;;;;;;;20.37;57.64;99164.28;6950495;28;20215;-81
2022/10/08 07:10:12;;;;;;;13.57;9.90;;;;;;;20.26;57.17;99157.06;6949746;28;20306;-79
2022/10/08 07:13:43;;;;;;;11.20;8.70;;;;;;;20.66;57.82;99162.91;6958611;28;20230;-81
2022/10/08 07:17:05;;;;;;;21.03;14.80;;;;;;;21.17;55.37;99162.25;6919152;28;20203;-81
2022/10/08 07:20:26;;;;;;;15.23;11.57;;;;;;;21.02;56.98;99177.50;6950837;28;20305;-80
2022/10/08 07:23:49;;;;;;;14.97;10.60;;;;;;;21.27;55.69;99174.94;6948706;28;20219;-80
2022/10/08 07:27:11;;;;;;;13.90;10.33;;;;;;;21.25;55.45;99166.13;6956643;28;20203;-81
2022/10/08 07:30:36;;;;;;;12.73;9.43;;;;;;;21.49;55.52;99183.84;6958195;28;20242;-81
2022/10/08 07:33:58;;;;;;;12.77;9.63;;;;;;;21.12;56.28;99178.66;6955109;28;20287;-81
2022/10/08 07:37:20;;;;;;;11.30;9.33;;;;;;;21.23;55.88;99182.03;6950694;28;20260;-81
2022/10/08 07:40:42;;;;;;;15.47;10.33;;;;;;;22.00;54.50;99174.78;6950599;28;20265;-81
2022/10/08 07:44:06;;;;;;;12.77;9.80;;;;;;;22.01;53.46;99183.84;6950812;28;20231;-81
2022/10/08 07:47:27;;;;;;;12.93;9.87;;;;;;;22.12;53.51;99191.84;6951423;28;20684;-80
2022/10/08 07:50:49;;;;;;;14.73;9.53;;;;;;;21.87;53.31;99194.50;6951400;28;20295;-81
2022/10/08 07:54:14;;;;;;;12.67;9.47;;;;;;;22.48;52.59;99199.09;6953445;28;20278;-81
2022/10/08 07:57:37;;;;;;;11.87;9.17;;;;;;;22.79;52.20;99203.56;6952349;28;20259;-82
2022/10/08 08:00:59;;;;;;;15.20;8.87;;;;;;;21.95;51.91;99163.75;6950455;28;20734;-80
2022/10/08 08:04:20;;;;;;;11.30;7.90;;;;;;;22.31;51.46;99162.75;6950901;28;20229;-80
2022/10/08 08:07:42;;;;;;;15.90;7.43;;;;;;;21.91;51.45;99212.09;6949253;28;20214;-81
2022/10/08 08:11:05;;;;;;;10.10;6.67;;;;;;;22.33;50.79;99203.72;6950940;28;20371;-80
2022/10/08 08:14:28;;;;;;;9.57;5.47;;;;;;;22.59;50.21;99219.19;6951292;28;20273;-80
2022/10/08 08:17:49;;;;;;;11.57;6.30;;;;;;;22.36;47.68;99208.69;6949738;28;20224;-81
2022/10/08 08:21:12;;;;;;;8.43;5.53;;;;;;;22.15;48.76;99209.69;6950290;28;20729;-80
2022/10/08 08:24:35;;;;;;;10.90;4.77;;;;;;;21.70;46.47;99217.72;6949383;28;20236;-82
2022/10/08 08:27:56;;;;;;;7.63;5.30;;;;;;;21.81;47.20;99220.28;6948827;28;20285;-80
2022/10/08 08:31:21;;;;;;;10.60;4.87;;;;;;;21.94;47.41;99211.53;6944862;28;20287;-81
2022/10/08 08:34:43;;;;;;;11.63;4.87;;;;;;;21.75;46.56;99204.03;6922434;28;20291;-81
2022/10/08 08:38:04;;;;;;;12.00;4.13;;;;;;;21.18;46.94;99211.38;6921947;28;20206;-79
2022/10/08 08:41:35;;;;;;;10.33;6.60;;;;;;;21.72;45.45;99218.31;6922248;28;20246;-78
2022/10/08 08:44:59;;;;;;;20.10;7.00;;;;;;;22.18;42.89;99220.16;6923450;28;20265;-79
2022/10/08 08:48:23;;;;;;;20.47;9.10;;;;;;;22.64;42.36;99239.28;6928565;28;20231;-79
2022/10/08 08:51:45;;;;;;;19.37;9.03;;;;;;;22.32;42.49;99229.53;6950654;28;20206;-82
2022/10/08 08:55:13;;;;;;;12.10;5.17;;;;;;;22.97;41.17;99224.19;6953896;28;20663;-81
2022/10/08 08:58:40;;;;;;;8.23;4.07;;;;;;;23.86;39.66;99239.78;6955105;28;20226;-82
2022/10/08 09:02:08;;;;;;;9.50;3.37;;;;;;;23.57;38.47;99222.22;6959312;28;20215;-81
2022/10/08 09:05:33;;;;;;;6.13;3.07;;;;;;;24.12;36.77;99227.56;6949876;28;20246;-79
2022/10/08 09:08:56;;;;;;;7.80;2.90;;;;;;;23.66;37.45;99248.06;6925356;28;20230;-81
2022/10/08 09:12:20;;;;;;;8.77;3.73;;;;;;;24.01;36.74;99248.00;6947466;28;20204;-80
2022/10/08 09:15:42;;;;;;;9.77;3.20;;;;;;;22.91;38.09;99237.13;6949221;28;20293;-82
2022/10/08 09:19:04;;;;;;;8.43;2.90;;;;;;;23.72;37.44;99232.38;6951610;28;20265;-84
2022/10/08 09:22:29;;;;;;;7.97;3.47;;;;;;;23.83;37.55;99218.28;6951130;28;20790;-81
2022/10/08 09:25:54;;;;;;;8.57;3.20;;;;;;;24.39;35.75;99216.97;6941490;28;20706;-81
2022/10/08 09:29:31;;;;;;;8.23;2.87;;;;;;;24.72;35.60;99232.78;6949675;28;20371;-81
2022/10/08 09:32:53;;;;;;;8.47;3.30;;;;;;;24.97;34.90;99242.81;6954058;28;20202;-82
2022/10/08 09:36:28;;;;;;;6.73;2.60;;;;;;;24.86;36.25;99211.72;6957156;28;20349;-81
2022/10/08 09:40:17;;;;;;;7.93;2.90;;;;;;;24.53;36.18;99244.72;6955749;28;20223;-82
2022/10/08 09:43:39;;;;;;;5.57;2.80;;;;;;;24.61;35.34;99247.75;6956651;28;20358;-80
2022/10/08 09:47:05;;;;;;;8.13;2.97;;;;;;;24.35;35.30;99226.06;6956090;28;20233;-80
2022/10/08 09:50:26;;;;;;;7.97;3.23;;;;;;;24.59;35.00;99238.94;6954661;28;20232;-79
2022/10/08 09:53:50;;;;;;;10.93;3.77;;;;;;;23.70;35.49;99245.59;6952754;28;20232;-81
2022/10/08 09:57:15;;;;;;;8.30;2.87;;;;;;;23.10;37.20;99249.22;6952590;28;20295;-81
2022/10/08 10:00:38;;;;;;;8.97;3.47;;;;;;;23.29;37.34;99231.06;6951946;28;20270;-80
2022/10/08 10:04:01;;;;;;;11.00;3.70;;;;;;;23.76;36.90;99253.56;6954489;28;20706;-82
2022/10/08 10:07:22;;;;;;;8.00;2.90;;;;;;;23.47;36.05;99254.44;6955021;28;20239;-81
2022/10/08 10:10:45;;;;;;;9.37;3.37;;;;;;;22.86;37.87;99250.84;6954283;28;20224;-80
2022/10/08 10:14:14;;;;;;;8.87;2.73;;;;;;;23.88;36.82;99267.88;6960397;28;20210;-82
2022/10/08 10:17:38;;;;;;;9.00;3.20;;;;;;;22.99;37.81;99221.97;6960618;28;20216;-83
2022/10/08 10:21:02;;;;;;;9.50;3.27;;;;;;;22.70;37.81;99245.59;6961471;28;20219;-82
2022/10/08 10:24:32;;;;;;;10.47;2.90;;;;;;;23.47;37.19;99249.75;6960557;28;20224;-83
2022/10/08 10:27:58;;;;;;;7.93;2.60;;;;;;;23.28;36.71;99195.56;6956295;28;20212;-82
2022/10/08 10:31:25;;;;;;;4.53;2.87;;;;;;;22.87;36.67;99259.91;6957037;28;20207;-82
2022/10/08 10:34:55;;;;;;;8.03;3.10;;;;;;;23.30;37.05;99256.69;6928996;28;20356;-82
2022/10/08 10:38:22;;;;;;;11.73;3.07;;;;;;;22.63;37.66;99248.63;6928316;28;20258;-82
2022/10/08 10:41:46;;;;;;;6.73;3.10;;;;;;;23.56;36.13;99250.88;6929166;28;20283;-82
2022/10/08 10:45:17;;;;;;;8.33;3.10;;;;;;;23.42;35.96;99260.78;6927923;28;20232;-84
2022/10/08 10:48:40;;;;;;;9.23;3.30;;;;;;;22.75;37.79;99259.34;6948641;28;20295;-81
2022/10/08 10:52:11;;;;;;;7.00;3.13;;;;;;;22.53;38.14;99259.56;6955476;28;20285;-81
2022/10/08 10:55:35;;;;;;;9.67;2.90;;;;;;;23.23;36.23;99265.19;6955631;28;20218;-80
2022/10/08 10:59:13;;;;;;;8.37;3.10;;;;;;;23.57;34.19;99262.69;6955832;28;20286;-81
2022/10/08 11:02:40;;;;;;;11.37;3.00;;;;;;;22.88;35.31;99256.06;6955957;28;20672;-80
2022/10/08 11:06:14;;;;;;;7.97;3.10;;;;;;;22.56;35.83;99238.97;6956596;28;20238;-80
2022/10/08 11:09:42;;;;;;;6.87;2.67;;;;;;;22.97;35.32;99263.53;6955141;28;20258;-80
2022/10/08 11:13:11;;;;;;;11.07;3.30;;;;;;;23.29;33.93;99260.50;6956267;28;20198;-80
2022/10/08 11:16:46;;;;;;;4.27;2.50;;;;;;;23.69;34.66;99257.72;6955312;28;20689;-80
2022/10/08 11:20:23;;;;;;;4.50;2.73;;;;;;;23.89;33.95;99230.97;6954846;28;20978;-80
2022/10/08 11:23:57;;;;;;;4.77;2.60;;;;;;;23.80;32.98;99256.59;6955957;28;20294;-80
2022/10/08 11:27:27;;;;;;;7.97;2.47;;;;;;;23.81;33.32;99250.81;6955797;28;20280;-80
2022/10/08 11:30:53;;;;;;;7.70;2.60;;;;;;;22.94;34.30;99241.22;6955881;28;20260;-81
2022/10/08 11:34:22;;;;;;;6.63;2.50;;;;;;;22.59;34.41;99249.44;6957270;28;20203;-82
2022/10/08 11:37:48;;;;;;;8.53;2.67;;;;;;;22.01;34.63;99223.09;6952459;28;20831;-80
2022/10/08 11:41:15;;;;;;;7.20;3.07;;;;;;;22.94;34.54;99244.81;6954116;28;20228;-80
2022/10/08 11:44:37;;;;;;;5.27;2.30;;;;;;;22.32;34.19;99246.88;6954072;28;20313;-80
2022/10/08 11:47:59;;;;;;;4.53;2.50;;;;;;;23.39;33.67;99258.59;6953585;28;20201;-80
2022/10/08 11:51:37;;;;;;;8.57;2.80;;;;;;;23.51;33.39;99264.63;6953552;28;20236;-80
2022/10/08 11:55:00;;;;;;;9.47;2.90;;;;;;;24.10;32.40;99243.56;6952197;28;20286;-79
2022/10/08 11:58:26;;;;;;;8.27;2.73;;;;;;;23.66;32.33;99237.06;6947136;28;20226;-79
2022/10/08 12:01:50;;;;;;;9.60;2.83;;;;;;;23.04;32.80;99255.81;6951098;28;20586;-79
2022/10/08 12:05:27;;;;;;;6.93;2.97;;;;;;;23.83;31.96;99248.59;6942289;28;20364;-81
2022/10/08 12:08:51;;;;;;;4.90;2.10;;;;;;;23.95;32.03;99249.13;6946611;28;20331;-80
2022/10/08 12:12:14;;;;;;;7.00;2.53;;;;;;;24.02;31.99;99268.13;6958382;28;20203;-79
2022/10/08 12:16:03;;;;;;;8.03;2.47;;;;;;;23.59;31.78;99253.03;6948221;28;20294;-80
2022/10/08 12:20:02;;;;;;;6.00;2.90;;;;;;;23.80;32.06;99251.06;6949867;28;20375;-81
2022/10/08 12:23:37;;;;;;;7.07;2.37;;;;;;;23.66;33.19;99259.09;6865918;28;20212;-81
2022/10/08 12:27:24;;;;;;;6.50;2.33;;;;;;;23.55;33.17;99259.41;6885757;28;20245;-81
2022/10/08 12:30:49;;;;;;;7.07;2.37;;;;;;;23.36;32.62;99255.56;6935123;28;20311;-80
2022/10/08 12:34:14;;;;;;;6.70;2.50;;;;;;;23.51;32.25;99237.09;6950678;28;20294;-81
2022/10/08 12:37:47;;;;;;;8.33;2.90;;;;;;;23.35;33.60;99253.91;6950080;28;20194;-81
2022/10/08 12:41:16;;;;;;;9.63;2.83;;;;;;;23.94;33.36;99255.75;6950069;28;20688;-80
2022/10/08 12:44:44;;;;;;;6.40;2.80;;;;;;;23.88;33.76;99248.59;6949805;28;20298;-80
2022/10/08 12:48:12;;;;;;;8.53;2.50;;;;;;;24.29;32.68;99261.13;6950327;28;20207;-81
2022/10/08 12:51:42;;;;;;;5.47;2.50;;;;;;;23.61;33.38;99248.06;6950210;28;20638;-81
2022/10/08 12:55:05;;;;;;;4.47;2.07;;;;;;;24.07;32.44;99257.91;6948642;28;20212;-79
2022/10/08 12:58:29;;;;;;;4.60;2.17;;;;;;;23.63;33.45;99245.88;6947632;28;20352;-79
2022/10/08 13:01:51;;;;;;;4.20;2.50;;;;;;;24.14;33.64;99247.41;6947859;28;20209;-79
2022/10/08 13:05:24;;;;;;;7.50;2.53;;;;;;;24.09;33.21;99263.13;6948228;28;20232;-80
2022/10/08 13:08:49;;;;;;;5.37;2.43;;;;;;;24.76;32.42;99244.91;6947182;28;20252;-79
2022/10/08 13:12:10;;;;;;;4.20;2.50;;;;;;;25.03;32.73;99225.94;6947119;28;20296;-79
2022/10/08 13:15:34;;;;;;;6.17;2.30;;;;;;;24.03;32.25;99237.53;6947157;28;20275;-79
2022/10/08 13:18:57;;;;;;;5.93;2.10;;;;;;;23.71;32.35;99239.81;6947213;28;20775;-79
2022/10/08 13:22:23;;;;;;;4.37;2.00;;;;;;;24.54;32.61;99262.94;6947018;28;20335;-79
2022/10/08 13:25:46;;;;;;;6.27;2.20;;;;;;;24.18;32.65;99244.94;6946176;28;20297;-79
2022/10/08 13:29:33;;;;;;;4.93;2.40;;;;;;;24.00;31.56;99257.38;6947256;28;20289;-79
2022/10/08 13:33:02;;;;;;;6.13;2.47;;;;;;;24.10;32.41;99251.84;6933468;28;20224;-79
2022/10/08 13:36:23;;;;;;;5.07;2.00;;;;;;;24.23;32.19;99262.25;6947887;28;20209;-79
2022/10/08 13:39:50;;;;;;;7.13;2.70;;;;;;;23.97;32.85;99268.97;6946906;28;20362;-79
2022/10/08 13:43:13;;;;;;;4.67;2.10;;;;;;;23.98;33.46;99259.59;6947241;28;20269;-79
2022/10/08 13:46:34;;;;;;;5.17;2.13;;;;;;;23.89;33.92;99254.94;6947315;28;20235;-80
2022/10/08 13:50:00;;;;;;;4.70;2.10;;;;;;;24.13;33.90;99248.50;6946940;28;20323;-80
2022/10/08 13:53:23;;;;;;;5.67;2.17;;;;;;;24.32;33.55;99249.53;6947393;28;20298;-79
2022/10/08 13:56:45;;;;;;;5.47;1.93;;;;;;;24.29;33.15;99257.53;6947151;28;20208;-78
2022/10/08 14:00:12;;;;;;;3.70;2.00;;;;;;;24.19;32.33;99233.59;6946390;28;20312;-79
2022/10/08 14:03:34;;;;;;;5.17;2.17;;;;;;;24.39;32.90;99258.31;6946825;28;20289;-79
2022/10/08 14:06:58;;;;;;;6.63;1.90;;;;;;;24.34;32.93;99239.06;6932835;28;20274;-79
2022/10/08 14:10:19;;;;;;;3.93;2.10;;;;;;;24.48;32.33;99248.34;6919588;28;20315;-79
2022/10/08 14:13:41;;;;;;;3.90;1.90;;;;;;;24.72;31.69;99245.75;6919519;28;20264;-79
2022/10/08 14:17:04;;;;;;;6.10;2.07;;;;;;;23.98;33.22;99253.25;6919307;28;20250;-79
2022/10/08 14:20:25;;;;;;;4.13;1.97;;;;;;;23.89;33.07;99252.19;6924291;28;20320;-79
2022/10/08 14:23:47;;;;;;;6.60;1.93;;;;;;;23.61;33.61;99255.53;6925085;28;20242;-80
2022/10/08 14:27:08;;;;;;;3.80;1.90;;;;;;;23.55;34.72;99251.13;6925360;28;20314;-79
2022/10/08 14:30:30;;;;;;;4.37;2.17;;;;;;;23.09;35.65;99255.00;6924762;28;20371;-79
2022/10/08 14:33:53;;;;;;;5.13;2.00;;;;;;;22.92;36.63;99266.25;6924467;28;20456;-79
2022/10/08 14:37:14;;;;;;;3.47;1.87;;;;;;;22.80;36.15;99229.94;6924460;28;20306;-79
2022/10/08 14:40:36;;;;;;;5.13;1.83;;;;;;;23.37;35.33;99252.53;6924185;28;20759;-79
2022/10/08 14:43:57;;;;;;;4.17;2.50;;;;;;;22.99;35.85;99252.22;6924563;28;20267;-79
2022/10/08 14:47:19;;;;;;;4.13;2.07;;;;;;;23.03;35.44;99240.41;6924852;28;20309;-79
2022/10/08 14:50:42;;;;;;;4.40;1.60;;;;;;;23.34;35.47;99252.25;6926222;28;20302;-79
2022/10/08 14:54:04;;;;;;;3.07;1.80;;;;;;;23.57;34.56;99252.50;6925513;28;20376;-79
2022/10/08 14:57:26;;;;;;;3.80;2.27;;;;;;;23.28;35.71;99247.84;6923962;28;20288;-79
2022/10/08 15:00:52;;;;;;;4.53;1.97;;;;;;;23.05;36.33;99248.38;6924404;28;20635;-79
2022/10/08 15:04:15;;;;;;;7.27;2.00;;;;;;;23.21;36.44;99250.91;6924772;28;20300;-79
2022/10/08 15:07:38;;;;;;;10.57;6.23;;;;;;;23.43;37.80;99258.88;6926552;28;20383;-78
2022/10/08 15:11:01;;;;;;;6.50;3.70;;;;;;;23.97;36.17;99252.44;6926773;28;20374;-79
2022/10/08 15:14:23;;;;;;;4.20;1.73;;;;;;;23.85;34.93;99253.81;6928993;28;20212;-80
2022/10/08 15:17:45;;;;;;;3.60;1.93;;;;;;;23.71;35.80;99245.31;6940106;28;20263;-79
2022/10/08 15:21:07;;;;;;;3.07;1.77;;;;;;;22.58;37.54;99256.84;6935354;28;20232;-79
2022/10/08 15:24:30;;;;;;;3.20;1.80;;;;;;;22.56;37.93;99259.06;6929836;28;20238;-81
2022/10/08 15:27:51;;;;;;;2.60;1.50;;;;;;;22.71;37.69;99261.00;6931400;28;20303;-81
2022/10/08 15:31:15;;;;;;;3.87;1.50;;;;;;;22.33;37.68;99256.75;6935274;28;20200;-81
2022/10/08 15:34:36;;;;;;;2.77;1.63;;;;;;;22.22;38.25;99277.03;6933647;28;20224;-81
2022/10/08 15:37:58;;;;;;;2.63;1.40;;;;;;;22.46;37.62;99266.41;6927378;28;20347;-81
2022/10/08 15:41:21;;;;;;;2.77;1.40;;;;;;;22.02;38.07;99271.44;6928239;28;20690;-81
2022/10/08 15:44:45;;;;;;;2.77;1.60;;;;;;;22.55;37.55;99282.09;6927252;28;20311;-81
2022/10/08 15:48:10;;;;;;;4.50;1.60;;;;;;;22.69;37.08;99285.19;6927181;28;20197;-81
2022/10/08 15:51:32;;;;;;;1.90;1.40;;;;;;;22.85;36.30;99248.38;6926665;28;20234;-81
2022/10/08 15:54:53;;;;;;;1.57;1.47;;;;;;;21.98;37.85;99275.00;6926441;28;20216;-81
2022/10/08 15:58:16;;;;;;;2.97;1.37;;;;;;;22.15;37.80;99292.94;6926179;28;20291;-81